createdAt,value
2023-02-27T00:00:02.857Z,102553.64
2023-02-27T00:01:02.896Z,102553.91
2023-02-27T00:02:03.518Z,102554.06
2023-02-27T00:03:03.996Z,102554.66
2023-02-27T00:04:04.228Z,102555.16
2023-02-27T00:05:04.247Z,102555.75
2023-02-27T00:06:04.383Z,102556.52
2023-02-27T00:07:04.541Z,102557.19
2023-02-27T00:08:05.499Z,102557.28
2023-02-27T00:09:05.728Z,102558.01
2023-02-27T00:10:06.625Z,102558.11
2023-02-27T00:11:06.709Z,102558.94
2023-02-27T00:12:06.786Z,102559.10
2023-02-27T00:13:06.892Z,102559.27
2023-02-27T00:14:07.098Z,102559.83
2023-02-27T00:15:07.924Z,102559.83
2023-02-27T00:16:08.011Z,102559.94
2023-02-27T00:17:08.134Z,102560.06
2023-02-27T00:18:08.595Z,102560.12
2023-02-27T00:19:08.873Z,102559.80
2023-02-27T00:20:09.283Z,102559.77
2023-02-27T00:21:09.427Z,102560.00
2023-02-27T00:22:09.796Z,102559.80
2023-02-27T00:23:10.785Z,102559.92
2023-02-27T00:24:11.219Z,102560.55
2023-02-27T00:25:11.360Z,102560.45
2023-02-27T00:26:11.569Z,102560.65
2023-02-27T00:27:11.948Z,102560.45
2023-02-27T00:27:21.507Z,102577.34
2023-02-27T00:28:22.482Z,102568.41
2023-02-27T00:29:23.474Z,102568.08
2023-02-27T00:30:23.478Z,102567.16
2023-02-27T00:31:24.137Z,102566.99
2023-02-27T00:32:24.080Z,102566.73
2023-02-27T00:33:24.701Z,102566.66
2023-02-27T00:34:25.622Z,102565.89
2023-02-27T00:35:25.943Z,102565.47
2023-02-27T00:36:26.859Z,102565.23
2023-02-27T00:37:26.939Z,102565.30
2023-02-27T00:38:27.166Z,102564.93
2023-02-27T00:39:27.249Z,102565.16
2023-02-27T00:40:28.163Z,102564.56
2023-02-27T00:41:28.719Z,102563.97
2023-02-27T00:42:28.864Z,102564.27
2023-02-27T00:43:29.854Z,102563.93
2023-02-27T00:44:29.966Z,102563.83
2023-02-27T00:45:30.817Z,102563.69
2023-02-27T00:46:31.012Z,102563.59
2023-02-27T00:47:31.670Z,102563.42
2023-02-27T00:48:32.463Z,102563.55
2023-02-27T00:49:33.310Z,102563.39
2023-02-27T00:50:34.277Z,102563.78
2023-02-27T00:51:35.220Z,102563.45
2023-02-27T00:52:35.714Z,102563.09
2023-02-27T00:53:35.746Z,102563.48
2023-02-27T00:54:35.750Z,102563.75
2023-02-27T00:55:35.815Z,102563.81
2023-02-27T00:56:36.602Z,102564.14
2023-02-27T00:57:36.984Z,102564.74
2023-02-27T00:58:37.909Z,102565.14
2023-02-27T00:59:38.078Z,102565.80
2023-02-27T00:59:46.807Z,102589.00
2023-02-27T01:00:47.622Z,102565.83
2023-02-27T01:01:48.367Z,102565.73
2023-02-27T01:02:48.520Z,102566.22
2023-02-27T01:03:49.236Z,102566.85
2023-02-27T01:04:50.133Z,102566.81
2023-02-27T01:05:50.710Z,102567.20
2023-02-27T01:06:50.776Z,102567.61
2023-02-27T01:07:51.625Z,102568.39
2023-02-27T01:08:52.635Z,102568.19
2023-02-27T01:09:52.801Z,102568.48
2023-02-27T01:10:53.289Z,102568.45
2023-02-27T01:11:53.967Z,102568.58
2023-02-27T01:12:54.699Z,102568.31
2023-02-27T01:13:55.596Z,102567.67
2023-02-27T01:14:55.624Z,102567.74
2023-02-27T01:15:56.521Z,102567.54
2023-02-27T01:16:57.204Z,102567.34
2023-02-27T01:17:57.863Z,102567.63
2023-02-27T01:18:58.363Z,102568.26
2023-02-27T01:19:59.122Z,102568.28
2023-02-27T01:21:00.011Z,102567.92
2023-02-27T01:22:00.830Z,102567.38
2023-02-27T01:23:01.812Z,102567.55
2023-02-27T01:24:02.476Z,102567.67
2023-02-27T01:25:03.223Z,102567.64
2023-02-27T01:26:03.975Z,102567.44
2023-02-27T01:27:04.763Z,102567.83
2023-02-27T01:28:05.611Z,102567.36
2023-02-27T01:29:06.678Z,102567.76
2023-02-27T01:30:07.098Z,102568.58
2023-02-27T01:31:07.811Z,102568.28
2023-02-27T01:31:17.506Z,102579.77
2023-02-27T01:32:18.463Z,102562.77
2023-02-27T01:33:19.128Z,102563.09
2023-02-27T01:34:19.915Z,102562.92
2023-02-27T01:35:20.682Z,102563.32
2023-02-27T01:36:20.998Z,102564.15
2023-02-27T01:37:21.862Z,102564.41
2023-02-27T01:38:22.652Z,102565.23
2023-02-27T01:39:23.293Z,102565.04
2023-02-27T01:40:24.247Z,102564.97
2023-02-27T01:41:24.530Z,102565.10
2023-02-27T01:42:24.800Z,102565.00
2023-02-27T01:43:25.053Z,102564.97
2023-02-27T01:44:25.432Z,102564.69
2023-02-27T01:45:25.435Z,102564.09
2023-02-27T01:46:25.613Z,102564.26
2023-02-27T01:47:25.829Z,102563.79
2023-02-27T01:48:26.216Z,102563.69
2023-02-27T01:49:26.451Z,102563.25
2023-02-27T01:50:27.321Z,102563.05
2023-02-27T01:51:28.338Z,102562.78
2023-02-27T01:52:28.359Z,102562.52
2023-02-27T01:53:28.477Z,102561.86
2023-02-27T01:54:28.473Z,102561.22
2023-02-27T01:55:28.860Z,102560.02
2023-02-27T01:56:29.141Z,102559.52
2023-02-27T01:57:30.050Z,102559.22
2023-02-27T01:58:30.750Z,102558.19
2023-02-27T01:59:31.432Z,102557.00
2023-02-27T02:00:31.652Z,102556.23
2023-02-27T02:01:31.994Z,102556.23
2023-02-27T02:01:42.052Z,102564.09
2023-02-27T02:02:42.452Z,102545.42
2023-02-27T02:03:43.303Z,102545.16
2023-02-27T02:04:43.998Z,102544.89
2023-02-27T02:05:44.948Z,102544.56
2023-02-27T02:06:45.822Z,102544.95
2023-02-27T02:07:46.681Z,102545.35
2023-02-27T02:08:46.670Z,102545.75
2023-02-27T02:09:46.823Z,102545.91
2023-02-27T02:10:47.792Z,102546.47
2023-02-27T02:11:48.550Z,102546.63
2023-02-27T02:12:49.398Z,102546.59
2023-02-27T02:13:49.464Z,102546.69
2023-02-27T02:14:49.910Z,102546.42
2023-02-27T02:15:50.866Z,102546.76
2023-02-27T02:16:51.294Z,102546.49
2023-02-27T02:17:51.292Z,102546.55
2023-02-27T02:18:51.331Z,102546.22
2023-02-27T02:19:51.730Z,102545.95
2023-02-27T02:20:52.518Z,102545.69
2023-02-27T02:21:52.978Z,102546.02
2023-02-27T02:22:53.779Z,102545.63
2023-02-27T02:23:54.555Z,102545.42
2023-02-27T02:24:54.963Z,102545.69
2023-02-27T02:25:55.682Z,102545.81
2023-02-27T02:26:56.516Z,102545.64
2023-02-27T02:27:56.522Z,102545.71
2023-02-27T02:28:57.312Z,102545.18
2023-02-27T02:29:57.597Z,102545.41
2023-02-27T02:30:58.706Z,102544.97
2023-02-27T02:31:58.784Z,102544.38
2023-02-27T02:32:59.472Z,102543.94
2023-02-27T02:33:08.159Z,102550.95
2023-02-27T02:34:09.090Z,102540.09
2023-02-27T02:35:09.883Z,102539.83
2023-02-27T02:36:09.957Z,102539.89
2023-02-27T02:37:10.918Z,102539.56
2023-02-27T02:38:11.011Z,102538.86
2023-02-27T02:39:11.495Z,102539.20
2023-02-27T02:40:11.775Z,102538.80
2023-02-27T02:41:12.672Z,102538.47
2023-02-27T02:42:12.915Z,102538.36
2023-02-27T02:43:13.002Z,102538.76
2023-02-27T02:44:13.598Z,102539.16
2023-02-27T02:45:14.220Z,102538.59
2023-02-27T02:46:14.525Z,102539.15
2023-02-27T02:47:14.643Z,102539.22
2023-02-27T02:48:15.612Z,102539.48
2023-02-27T02:49:15.731Z,102540.30
2023-02-27T02:50:16.132Z,102539.94
2023-02-27T02:51:16.551Z,102539.84
2023-02-27T02:52:17.258Z,102539.34
2023-02-27T02:53:17.659Z,102539.41
2023-02-27T02:54:17.919Z,102539.57
2023-02-27T02:55:18.536Z,102539.80
2023-02-27T02:56:18.786Z,102539.89
2023-02-27T02:57:19.098Z,102540.06
2023-02-27T02:58:20.022Z,102540.12
2023-02-27T02:59:20.441Z,102540.45
2023-02-27T03:00:20.673Z,102540.45
2023-02-27T03:01:21.396Z,102540.62
2023-02-27T03:02:22.147Z,102540.62
2023-02-27T03:03:22.841Z,102541.12
2023-02-27T03:04:23.233Z,102541.28
2023-02-27T03:04:31.962Z,102559.64
2023-02-27T03:05:32.691Z,102543.91
2023-02-27T03:06:33.599Z,102543.97
2023-02-27T03:07:33.611Z,102543.97
2023-02-27T03:08:34.560Z,102544.06
2023-02-27T03:09:34.588Z,102543.53
2023-02-27T03:10:35.366Z,102543.43
2023-02-27T03:11:35.500Z,102543.53
2023-02-27T03:12:36.097Z,102543.77
2023-02-27T03:13:36.938Z,102543.83
2023-02-27T03:14:37.074Z,102543.73
2023-02-27T03:15:37.126Z,102543.83
2023-02-27T03:16:37.150Z,102544.22
2023-02-27T03:17:37.999Z,102543.88
2023-02-27T03:18:38.334Z,102544.22
2023-02-27T03:19:39.144Z,102544.02
2023-02-27T03:20:40.132Z,102544.17
2023-02-27T03:21:41.037Z,102544.20
2023-02-27T03:22:41.997Z,102545.13
2023-02-27T03:23:42.171Z,102545.42
2023-02-27T03:24:42.306Z,102545.75
2023-02-27T03:25:42.756Z,102546.14
2023-02-27T03:26:42.972Z,102546.27
2023-02-27T03:27:43.922Z,102546.92
2023-02-27T03:28:44.554Z,102547.05
2023-02-27T03:29:45.457Z,102547.70
2023-02-27T03:30:46.441Z,102547.73
2023-02-27T03:31:46.758Z,102548.39
2023-02-27T03:32:46.682Z,102548.23
2023-02-27T03:33:47.307Z,102548.85
2023-02-27T03:34:47.542Z,102549.51
2023-02-27T03:35:48.337Z,102550.13
2023-02-27T03:35:57.530Z,102574.48
2023-02-27T03:36:58.102Z,102560.23
2023-02-27T03:37:58.931Z,102559.63
2023-02-27T03:38:59.424Z,102559.63
2023-02-27T03:40:00.195Z,102559.30
2023-02-27T03:41:01.084Z,102559.30
2023-02-27T03:42:01.451Z,102559.73
2023-02-27T03:43:02.012Z,102559.57
2023-02-27T03:44:02.407Z,102559.67
2023-02-27T03:45:02.637Z,102560.23
2023-02-27T03:46:02.946Z,102560.73
2023-02-27T03:47:02.899Z,102560.83
2023-02-27T03:48:03.429Z,102561.39
2023-02-27T03:49:03.869Z,102561.52
2023-02-27T03:50:04.791Z,102561.67
2023-02-27T03:51:05.929Z,102561.64
2023-02-27T03:52:05.757Z,102562.13
2023-02-27T03:53:05.857Z,102562.03
2023-02-27T03:54:06.079Z,102562.52
2023-02-27T03:55:06.171Z,102562.48
2023-02-27T03:56:07.029Z,102562.81
2023-02-27T03:57:07.716Z,102562.91
2023-02-27T03:58:08.335Z,102562.81
2023-02-27T03:59:08.755Z,102562.65
2023-02-27T04:00:09.163Z,102562.55
2023-02-27T04:01:10.110Z,102562.12
2023-02-27T04:02:10.256Z,102561.84
2023-02-27T04:03:11.084Z,102562.01
2023-02-27T04:04:11.690Z,102562.07
2023-02-27T04:05:11.901Z,102562.69
2023-02-27T04:06:12.131Z,102562.91
2023-02-27T04:07:12.870Z,102562.48
2023-02-27T04:07:21.652Z,102586.33
2023-02-27T04:08:21.879Z,102563.32
2023-02-27T04:09:22.792Z,102563.55
2023-02-27T04:10:23.112Z,102563.12
2023-02-27T04:11:23.111Z,102563.52
2023-02-27T04:12:23.257Z,102563.17
2023-02-27T04:13:23.925Z,102563.14
2023-02-27T04:14:24.426Z,102562.97
2023-02-27T04:15:25.313Z,102562.66
2023-02-27T04:16:25.730Z,102563.05
2023-02-27T04:17:25.971Z,102563.61
2023-02-27T04:18:26.790Z,102564.00
2023-02-27T04:19:27.658Z,102564.06
2023-02-27T04:20:27.789Z,102564.19
2023-02-27T04:21:28.109Z,102564.68
2023-02-27T04:22:28.647Z,102564.54
2023-02-27T04:23:29.005Z,102564.60
2023-02-27T04:24:29.145Z,102564.50
2023-02-27T04:25:30.062Z,102564.98
2023-02-27T04:26:30.440Z,102565.11
2023-02-27T04:27:30.586Z,102565.27
2023-02-27T04:28:30.887Z,102565.07
2023-02-27T04:29:31.673Z,102564.57
2023-02-27T04:30:31.708Z,102564.80
2023-02-27T04:31:32.502Z,102564.80
2023-02-27T04:32:33.317Z,102563.83
2023-02-27T04:33:33.323Z,102563.66
2023-02-27T04:34:34.140Z,102563.89
2023-02-27T04:35:34.442Z,102563.62
2023-02-27T04:36:34.530Z,102563.62
2023-02-27T04:37:34.704Z,102562.98
2023-02-27T04:38:34.971Z,102563.25
2023-02-27T04:39:35.795Z,102562.88
2023-02-27T04:40:36.334Z,102562.88
2023-02-27T04:40:44.989Z,102575.70
2023-02-27T04:41:45.757Z,102569.25
2023-02-27T04:42:46.018Z,102568.81
2023-02-27T04:43:46.946Z,102568.38
2023-02-27T04:44:47.096Z,102568.87
2023-02-27T04:45:48.181Z,102568.61
2023-02-27T04:46:48.248Z,102568.61
2023-02-27T04:47:48.609Z,102568.55
2023-02-27T04:48:49.055Z,102568.21
2023-02-27T04:49:49.638Z,102568.50
2023-02-27T04:50:49.777Z,102568.83
2023-02-27T04:51:50.016Z,102568.56
2023-02-27T04:52:50.331Z,102568.42
2023-02-27T04:53:50.637Z,102569.14
2023-02-27T04:54:51.222Z,102569.03
2023-02-27T04:55:51.446Z,102569.19
2023-02-27T04:56:52.095Z,102569.59
2023-02-27T04:57:52.557Z,102569.38
2023-02-27T04:58:52.631Z,102569.81
2023-02-27T04:59:52.840Z,102569.61
2023-02-27T05:00:52.880Z,102569.94
2023-02-27T05:01:53.782Z,102569.56
2023-02-27T05:02:54.626Z,102570.05
2023-02-27T05:03:55.469Z,102570.13
2023-02-27T05:04:56.347Z,102570.95
2023-02-27T05:05:56.421Z,102571.34
2023-02-27T05:06:56.568Z,102572.00
2023-02-27T05:07:57.346Z,102572.49
2023-02-27T05:08:57.622Z,102573.16
2023-02-27T05:09:57.776Z,102572.75
2023-02-27T05:10:58.420Z,102573.74
2023-02-27T05:11:58.666Z,102574.47
2023-02-27T05:12:58.754Z,102575.03
2023-02-27T05:13:07.418Z,102605.68
2023-02-27T05:14:07.837Z,102589.61
2023-02-27T05:15:08.168Z,102589.28
2023-02-27T05:16:08.351Z,102588.78
2023-02-27T05:17:08.492Z,102588.95
2023-02-27T05:18:08.692Z,102589.21
2023-02-27T05:19:09.131Z,102589.37
2023-02-27T05:20:09.926Z,102589.55
2023-02-27T05:21:10.762Z,102590.04
2023-02-27T05:22:11.495Z,102590.86
2023-02-27T05:23:11.681Z,102590.92
2023-02-27T05:24:11.889Z,102591.92
2023-02-27T05:25:12.100Z,102592.91
2023-02-27T05:26:12.684Z,102593.13
2023-02-27T05:27:13.275Z,102593.73
2023-02-27T05:28:14.153Z,102594.45
2023-02-27T05:29:14.603Z,102594.84
2023-02-27T05:30:15.389Z,102595.00
2023-02-27T05:31:16.276Z,102595.56
2023-02-27T05:32:16.498Z,102596.13
2023-02-27T05:33:16.597Z,102596.22
2023-02-27T05:34:16.858Z,102596.28
2023-02-27T05:35:17.604Z,102596.84
2023-02-27T05:36:18.366Z,102596.50
2023-02-27T05:37:19.248Z,102596.73
2023-02-27T05:38:19.888Z,102597.29
2023-02-27T05:39:20.058Z,102597.69
2023-02-27T05:40:20.846Z,102597.95
2023-02-27T05:41:21.604Z,102598.17
2023-02-27T05:42:21.860Z,102598.23
2023-02-27T05:43:22.382Z,102598.57
2023-02-27T05:44:23.062Z,102598.90
2023-02-27T05:44:31.802Z,102623.73
2023-02-27T05:45:32.558Z,102601.63
2023-02-27T05:46:33.313Z,102601.23
2023-02-27T05:47:34.283Z,102601.23
2023-02-27T05:48:34.312Z,102601.06
2023-02-27T05:49:34.340Z,102600.64
2023-02-27T05:50:34.422Z,102600.64
2023-02-27T05:51:34.427Z,102600.20
2023-02-27T05:52:34.790Z,102600.37
2023-02-27T05:53:34.825Z,102600.59
2023-02-27T05:54:35.066Z,102600.03
2023-02-27T05:55:35.997Z,102599.60
2023-02-27T05:56:36.905Z,102599.66
2023-02-27T05:57:37.714Z,102599.40
2023-02-27T05:58:38.496Z,102598.84
2023-02-27T05:59:39.369Z,102598.41
2023-02-27T06:00:39.567Z,102598.03
2023-02-27T06:01:40.443Z,102597.63
2023-02-27T06:02:41.257Z,102597.63
2023-02-27T06:03:42.136Z,102597.27
2023-02-27T06:04:42.923Z,102597.20
2023-02-27T06:05:43.861Z,102597.03
2023-02-27T06:06:44.538Z,102596.50
2023-02-27T06:07:45.153Z,102595.67
2023-02-27T06:08:45.129Z,102594.87
2023-02-27T06:09:45.285Z,102595.13
2023-02-27T06:10:46.048Z,102595.03
2023-02-27T06:11:46.927Z,102594.93
2023-02-27T06:12:47.867Z,102594.75
2023-02-27T06:13:48.136Z,102594.66
2023-02-27T06:14:49.065Z,102594.72
2023-02-27T06:15:49.684Z,102594.81
2023-02-27T06:15:58.976Z,102617.59
2023-02-27T06:16:59.862Z,102595.40
2023-02-27T06:18:00.476Z,102595.56
2023-02-27T06:19:02.586Z,102595.56
2023-02-27T06:20:02.039Z,102595.56
2023-02-27T06:21:02.080Z,102596.23
2023-02-27T06:22:02.741Z,102596.23
2023-02-27T06:23:03.614Z,102596.88
2023-02-27T06:24:04.560Z,102597.38
2023-02-27T06:25:05.557Z,102597.71
2023-02-27T06:26:06.473Z,102598.27
2023-02-27T06:27:06.568Z,102598.77
2023-02-27T06:28:07.516Z,102599.53
2023-02-27T06:29:08.325Z,102600.63
2023-02-27T06:30:08.671Z,102601.55
2023-02-27T06:31:08.841Z,102602.11
2023-02-27T06:32:08.909Z,102603.04
2023-02-27T06:33:09.576Z,102604.30
2023-02-27T06:34:09.750Z,102605.36
2023-02-27T06:35:10.642Z,102606.84
2023-02-27T06:36:11.469Z,102607.50
2023-02-27T06:37:11.524Z,102608.33
2023-02-27T06:38:12.343Z,102609.42
2023-02-27T06:39:13.298Z,102610.08
2023-02-27T06:40:13.723Z,102611.17
2023-02-27T06:41:14.609Z,102611.44
2023-02-27T06:42:14.689Z,102612.33
2023-02-27T06:43:15.652Z,102613.52
2023-02-27T06:44:19.183Z,102614.19
2023-02-27T06:45:17.447Z,102614.95
2023-02-27T06:46:18.406Z,102615.83
2023-02-27T06:47:18.453Z,102616.73
2023-02-27T06:47:27.621Z,102649.16
2023-02-27T06:48:27.757Z,102632.20
2023-02-27T06:49:27.798Z,102632.14
2023-02-27T06:50:28.567Z,102632.31
2023-02-27T06:51:30.425Z,102631.91
2023-02-27T06:52:30.311Z,102632.48
2023-02-27T06:53:31.156Z,102632.84
2023-02-27T06:54:31.474Z,102632.78
2023-02-27T06:55:32.440Z,102632.89
2023-02-27T06:56:32.622Z,102632.56
2023-02-27T06:57:32.620Z,102632.89
2023-02-27T06:58:33.538Z,102633.22
2023-02-27T06:59:33.571Z,102633.55
2023-02-27T07:00:34.459Z,102633.32
2023-02-27T07:01:35.409Z,102633.72
2023-02-27T07:02:35.441Z,102634.38
2023-02-27T07:03:36.837Z,102634.44
2023-02-27T07:04:36.824Z,102634.27
2023-02-27T07:05:37.088Z,102634.66
2023-02-27T07:07:32.353Z,102635.12
2023-02-27T07:07:38.954Z,102635.55
2023-02-27T07:08:38.472Z,102636.00
2023-02-27T07:09:39.202Z,102636.83
2023-02-27T07:10:40.122Z,102637.33
2023-02-27T07:11:41.013Z,102638.08
2023-02-27T07:12:41.212Z,102638.97
2023-02-27T07:13:41.689Z,102639.59
2023-02-27T07:14:41.689Z,102640.52
2023-02-27T07:15:42.699Z,102640.91
2023-02-27T07:16:43.426Z,102640.97
2023-02-27T07:17:43.597Z,102640.80
2023-02-27T07:18:44.296Z,102641.03
2023-02-27T07:18:53.530Z,102663.52
2023-02-27T07:19:54.281Z,102643.20
2023-02-27T07:20:55.091Z,102643.10
2023-02-27T07:21:55.295Z,102643.05
2023-02-27T07:22:55.448Z,102643.70
2023-02-27T07:23:56.007Z,102643.58
2023-02-27T07:24:56.400Z,102644.19
2023-02-27T07:25:56.530Z,102645.05
2023-02-27T07:26:56.755Z,102645.48
2023-02-27T07:27:56.895Z,102646.09
2023-02-27T07:28:57.048Z,102646.63
2023-02-27T07:29:57.213Z,102647.17
2023-02-27T07:30:57.504Z,102647.55
2023-02-27T07:31:57.637Z,102648.19
2023-02-27T07:32:57.751Z,102649.12
2023-02-27T07:33:58.630Z,102650.02
2023-02-27T07:34:59.122Z,102650.14
2023-02-27T07:35:59.374Z,102650.95
2023-02-27T07:37:00.263Z,102652.08
2023-02-27T07:38:01.155Z,102652.95
2023-02-27T07:39:01.994Z,102653.59
2023-02-27T07:40:02.917Z,102654.03
2023-02-27T07:41:03.167Z,102654.51
2023-02-27T07:42:04.109Z,102654.82
2023-02-27T07:43:04.473Z,102654.77
2023-02-27T07:44:04.924Z,102654.91
2023-02-27T07:45:05.677Z,102655.28
2023-02-27T07:46:05.753Z,102655.00
2023-02-27T07:47:06.103Z,102655.58
2023-02-27T07:48:06.205Z,102656.28
2023-02-27T07:49:06.425Z,102656.99
2023-02-27T07:50:07.514Z,102657.56
2023-02-27T07:50:16.295Z,102691.23
2023-02-27T07:51:16.754Z,102667.34
2023-02-27T07:52:16.716Z,102667.18
2023-02-27T07:53:17.492Z,102667.52
2023-02-27T07:54:18.304Z,102668.05
2023-02-27T07:55:18.785Z,102667.89
2023-02-27T07:56:18.832Z,102668.06
2023-02-27T07:57:19.781Z,102668.26
2023-02-27T07:58:20.635Z,102668.20
2023-02-27T07:59:20.817Z,102668.53
2023-02-27T08:00:21.405Z,102669.30
2023-02-27T08:01:22.295Z,102669.34
2023-02-27T08:02:23.325Z,102669.94
2023-02-27T08:03:24.030Z,102670.74
2023-02-27T08:04:24.815Z,102671.22
2023-02-27T08:05:24.965Z,102671.76
2023-02-27T08:06:26.415Z,102671.84
2023-02-27T08:07:25.008Z,102672.31
2023-02-27T08:08:25.166Z,102672.79
2023-02-27T08:09:25.198Z,102673.77
2023-02-27T08:10:26.118Z,102674.24
2023-02-27T08:11:26.872Z,102675.31
2023-02-27T08:12:26.788Z,102675.89
2023-02-27T08:13:55.662Z,102676.30
2023-02-27T08:14:26.930Z,102676.28
2023-02-27T08:15:27.596Z,102676.70
2023-02-27T08:16:28.325Z,102677.08
2023-02-27T08:17:27.850Z,102677.32
2023-02-27T08:18:27.827Z,102677.56
2023-02-27T08:19:28.836Z,102677.81
2023-02-27T08:20:29.116Z,102677.46
2023-02-27T08:21:30.393Z,102678.30
2023-02-27T08:21:38.628Z,102706.00
2023-02-27T08:22:38.701Z,102683.93
2023-02-27T08:23:39.364Z,102683.59
2023-02-27T08:24:39.298Z,102683.27
2023-02-27T08:25:39.925Z,102683.20
2023-02-27T08:26:40.893Z,102683.08
2023-02-27T08:27:41.281Z,102682.72
2023-02-27T08:28:41.992Z,102682.73
2023-02-27T08:29:42.962Z,102682.87
2023-02-27T08:30:43.250Z,102682.52
2023-02-27T08:31:43.854Z,102681.95
2023-02-27T08:32:44.040Z,102681.70
2023-02-27T08:33:44.259Z,102681.84
2023-02-27T08:34:44.405Z,102681.59
2023-02-27T08:35:44.947Z,102681.50
2023-02-27T08:36:45.199Z,102681.80
2023-02-27T08:37:46.716Z,102682.48
2023-02-27T08:38:46.120Z,102682.39
2023-02-27T08:39:46.205Z,102682.86
2023-02-27T08:40:47.076Z,102682.97
2023-02-27T08:41:47.273Z,102682.79
2023-02-27T08:42:48.294Z,102683.13
2023-02-27T08:43:48.285Z,102683.14
2023-02-27T08:44:48.682Z,102683.16
2023-02-27T08:45:49.343Z,102683.09
2023-02-27T08:46:49.634Z,102684.11
2023-02-27T08:47:49.717Z,102684.08
2023-02-27T08:48:49.998Z,102684.92
2023-02-27T08:49:50.256Z,102685.80
2023-02-27T08:50:51.093Z,102686.70
2023-02-27T08:51:51.358Z,102687.77
2023-02-27T08:52:51.380Z,102688.94
2023-02-27T08:53:51.918Z,102690.03
2023-02-27T08:54:52.579Z,102690.87
2023-02-27T08:55:01.246Z,102726.75
2023-02-27T08:56:02.829Z,102701.17
2023-02-27T08:57:02.177Z,102701.57
2023-02-27T08:58:02.456Z,102701.34
2023-02-27T08:59:03.106Z,102701.50
2023-02-27T09:00:03.812Z,102701.47
2023-02-27T09:01:04.388Z,102701.51
2023-02-27T09:02:05.044Z,102701.44
2023-02-27T09:03:05.193Z,102701.48
2023-02-27T09:04:05.453Z,102701.52
2023-02-27T09:05:05.817Z,102701.38
2023-02-27T09:06:06.296Z,102701.48
2023-02-27T09:07:07.287Z,102701.34
2023-02-27T09:08:07.610Z,102701.81
2023-02-27T09:09:08.286Z,102702.28
2023-02-27T09:10:08.887Z,102703.11
2023-02-27T09:11:08.977Z,102703.48
2023-02-27T09:12:09.312Z,102703.62
2023-02-27T09:13:09.395Z,102703.63
2023-02-27T09:14:10.248Z,102703.73
2023-02-27T09:15:10.710Z,102703.75
2023-02-27T09:16:11.502Z,102704.80
2023-02-27T09:17:11.912Z,102705.73
2023-02-27T09:18:12.511Z,102707.63
2023-02-27T09:19:12.634Z,102709.62
2023-02-27T09:20:13.239Z,102712.26
2023-02-27T09:21:13.327Z,102714.58
2023-02-27T09:22:13.542Z,102716.59
2023-02-27T09:23:14.564Z,102719.57
2023-02-27T09:24:20.289Z,102721.69
2023-02-27T09:25:16.500Z,102724.87
2023-02-27T09:26:16.635Z,102726.88
2023-02-27T09:26:40.065Z,102775.27
2023-02-27T09:27:25.812Z,102749.09
2023-02-27T09:28:26.048Z,102750.24
2023-02-27T09:29:26.157Z,102751.31
2023-02-27T09:30:27.123Z,102752.27
2023-02-27T09:31:27.778Z,102753.05
2023-02-27T09:32:27.426Z,102753.06
2023-02-27T09:33:29.251Z,102754.39
2023-02-27T09:34:29.088Z,102754.84
2023-02-27T09:35:29.465Z,102755.44
2023-02-27T09:36:30.408Z,102756.19
2023-02-27T09:37:30.530Z,102757.65
2023-02-27T09:38:30.549Z,102758.30
2023-02-27T09:39:30.690Z,102759.00
2023-02-27T09:40:30.764Z,102760.09
2023-02-27T09:41:31.205Z,102761.48
2023-02-27T09:42:31.281Z,102763.09
2023-02-27T09:43:32.086Z,102764.12
2023-02-27T09:44:45.187Z,102765.42
2023-02-27T09:45:33.531Z,102767.09
2023-02-27T09:46:33.604Z,102768.38
2023-02-27T09:47:33.608Z,102769.66
2023-02-27T09:48:33.622Z,102770.87
2023-02-27T09:49:33.985Z,102771.59
2023-02-27T09:50:34.152Z,102772.16
2023-02-27T09:51:35.132Z,102773.31
2023-02-27T09:52:35.404Z,102774.52
2023-02-27T09:53:35.450Z,102774.73
2023-02-27T09:54:35.674Z,102775.95
2023-02-27T09:55:36.605Z,102776.99
2023-02-27T09:56:36.713Z,102778.09
2023-02-27T09:57:36.736Z,102779.33
2023-02-27T09:57:45.370Z,102804.89
2023-02-27T09:58:45.547Z,102796.39
2023-02-27T09:59:46.441Z,102796.31
2023-02-27T10:00:46.679Z,102795.58
2023-02-27T10:01:47.222Z,102795.75
2023-02-27T10:02:47.257Z,102795.60
2023-02-27T10:03:47.840Z,102795.31
2023-02-27T10:04:48.679Z,102795.16
2023-02-27T10:05:49.547Z,102795.48
2023-02-27T10:06:49.684Z,102795.91
2023-02-27T10:07:49.842Z,102797.02
2023-02-27T10:08:49.907Z,102797.69
2023-02-27T10:09:49.956Z,102797.98
2023-02-27T10:10:50.259Z,102798.66
2023-02-27T10:11:50.865Z,102799.50
2023-02-27T10:12:51.523Z,102800.08
2023-02-27T10:13:51.561Z,102800.63
2023-02-27T10:14:51.725Z,102801.38
2023-02-27T10:15:51.741Z,102802.19
2023-02-27T10:16:52.181Z,102802.28
2023-02-27T10:17:52.264Z,102802.71
2023-02-27T10:18:53.184Z,102803.55
2023-02-27T10:19:53.369Z,102803.88
2023-02-27T10:20:54.379Z,102804.68
2023-02-27T10:21:55.144Z,102805.87
2023-02-27T10:22:55.251Z,102806.56
2023-02-27T10:23:56.233Z,102807.02
2023-02-27T10:24:57.029Z,102807.41
2023-02-27T10:25:57.909Z,102807.67
2023-02-27T10:26:58.226Z,102806.88
2023-02-27T10:27:59.149Z,102807.41
2023-02-27T10:28:59.276Z,102807.86
2023-02-27T10:29:07.930Z,102825.06
2023-02-27T10:30:09.644Z,102819.17
2023-02-27T10:31:08.546Z,102818.24
2023-02-27T10:32:08.790Z,102818.00
2023-02-27T10:33:09.015Z,102817.99
2023-02-27T10:34:09.293Z,102816.45
2023-02-27T10:35:09.735Z,102816.13
2023-02-27T10:36:12.458Z,102815.75
2023-02-27T10:37:10.802Z,102814.78
2023-02-27T10:38:11.182Z,102814.64
2023-02-27T10:39:11.677Z,102814.53
2023-02-27T10:40:12.595Z,102814.22
2023-02-27T10:41:12.775Z,102813.70
2023-02-27T10:42:12.781Z,102812.97
2023-02-27T10:43:13.327Z,102812.38
2023-02-27T10:44:13.289Z,102811.91
2023-02-27T10:45:13.400Z,102811.67
2023-02-27T10:46:13.506Z,102811.14
2023-02-27T10:47:13.577Z,102810.92
2023-02-27T10:48:13.844Z,102810.23
2023-02-27T10:49:13.903Z,102809.41
2023-02-27T10:50:14.188Z,102808.44
2023-02-27T10:51:14.794Z,102807.77
2023-02-27T10:52:15.150Z,102807.21
2023-02-27T10:53:15.338Z,102806.34
2023-02-27T10:54:15.775Z,102805.16
2023-02-27T10:55:16.038Z,102804.13
2023-02-27T10:56:16.073Z,102802.87
2023-02-27T10:57:17.068Z,102801.66
2023-02-27T10:58:17.821Z,102801.30
2023-02-27T10:59:18.148Z,102800.50
2023-02-27T11:00:18.195Z,102799.62
2023-02-27T11:01:18.995Z,102799.45
2023-02-27T11:01:29.176Z,102784.45
2023-02-27T11:02:28.898Z,102778.56
2023-02-27T11:03:28.976Z,102778.41
2023-02-27T11:04:29.231Z,102778.83
2023-02-27T11:05:29.591Z,102778.58
2023-02-27T11:06:29.988Z,102778.08
2023-02-27T11:07:30.423Z,102778.02
2023-02-27T11:08:30.888Z,102777.70
2023-02-27T11:09:30.962Z,102776.66
2023-02-27T11:10:32.026Z,102776.16
2023-02-27T11:11:32.373Z,102775.59